createdAt,value
2017-02-11T00:00:26.074Z,0
2017-02-11T00:01:34.157Z,0
2017-02-11T00:02:42.251Z,0
2017-02-11T00:03:50.341Z,0
2017-02-11T00:04:58.425Z,0
2017-02-11T00:06:06.518Z,0
2017-02-11T00:07:14.600Z,0
2017-02-11T00:08:22.683Z,0
2017-02-11T00:09:30.771Z,0
2017-02-11T00:10:38.865Z,0
2017-02-11T00:11:46.955Z,0
2017-02-11T00:12:55.043Z,0
2017-02-11T00:14:03.123Z,0
2017-02-11T00:15:11.214Z,0
2017-02-11T00:16:19.303Z,0
2017-02-11T00:17:27.385Z,0
2017-02-11T00:18:35.477Z,0
2017-02-11T00:19:43.566Z,0
2017-02-11T00:20:51.649Z,0
2017-02-11T00:21:59.747Z,0
2017-02-11T00:23:07.836Z,0
2017-02-11T00:24:15.924Z,0
2017-02-11T00:25:24.013Z,0
2017-02-11T00:26:32.104Z,0
2017-02-11T00:27:40.196Z,0
2017-02-11T00:28:48.314Z,0
2017-02-11T00:29:56.382Z,0
2017-02-11T00:31:04.476Z,0
2017-02-11T00:32:12.558Z,0
2017-02-11T00:33:20.647Z,0
2017-02-11T00:34:28.744Z,0
2017-02-11T00:35:36.830Z,0
2017-02-11T00:36:44.962Z,0
2017-02-11T00:37:53.009Z,0
2017-02-11T00:39:01.098Z,0
2017-02-11T00:40:09.183Z,0
2017-02-11T00:41:17.268Z,0
2017-02-11T00:42:25.359Z,0
2017-02-11T00:43:33.446Z,0
2017-02-11T00:44:41.532Z,0
2017-02-11T00:45:49.626Z,0
2017-02-11T00:46:57.726Z,0
2017-02-11T00:48:05.802Z,0
2017-02-11T00:49:13.886Z,0
2017-02-11T00:50:21.979Z,0
2017-02-11T00:51:30.069Z,0
2017-02-11T00:52:38.159Z,0
2017-02-11T00:53:46.246Z,0
2017-02-11T00:54:54.336Z,0
2017-02-11T00:56:02.420Z,0
2017-02-11T00:57:10.510Z,0
2017-02-11T00:58:18.606Z,0
2017-02-11T00:59:26.692Z,0
2017-02-11T01:00:34.779Z,0
2017-02-11T01:01:42.865Z,0
2017-02-11T01:02:50.953Z,0
2017-02-11T01:03:59.047Z,0
2017-02-11T01:05:07.131Z,0
2017-02-11T01:06:15.233Z,0
2017-02-11T01:07:23.317Z,0
2017-02-11T01:08:31.402Z,0
2017-02-11T01:09:39.492Z,0
2017-02-11T01:10:47.580Z,0
2017-02-11T01:11:55.672Z,0
2017-02-11T01:13:03.755Z,0
2017-02-11T01:14:11.847Z,0
2017-02-11T01:15:19.937Z,0
2017-02-11T01:16:28.021Z,0
2017-02-11T01:17:36.113Z,0
2017-02-11T01:18:44.199Z,0
2017-02-11T01:19:52.282Z,0
2017-02-11T01:21:00.369Z,0
2017-02-11T01:22:08.465Z,0
2017-02-11T01:23:16.555Z,0
2017-02-11T01:24:24.648Z,0
2017-02-11T01:25:32.736Z,0
2017-02-11T01:26:40.825Z,0
2017-02-11T01:27:48.912Z,0
2017-02-11T01:28:56.995Z,0
2017-02-11T01:30:05.083Z,0
2017-02-11T01:31:13.172Z,0
2017-02-11T01:32:21.261Z,0
2017-02-11T01:33:29.357Z,0
2017-02-11T01:34:37.445Z,0
2017-02-11T01:35:45.530Z,0
2017-02-11T01:36:53.617Z,0
2017-02-11T01:38:01.708Z,0
2017-02-11T01:39:09.798Z,0
2017-02-11T01:40:17.977Z,0
2017-02-11T01:41:25.973Z,0
2017-02-11T01:42:34.067Z,0
2017-02-11T01:43:42.154Z,0
2017-02-11T01:44:50.247Z,0
2017-02-11T01:45:58.338Z,0
2017-02-11T01:47:06.430Z,0
2017-02-11T01:48:14.515Z,0
2017-02-11T01:49:22.614Z,0
2017-02-11T01:50:30.700Z,0
2017-02-11T01:51:38.786Z,0
2017-02-11T01:52:46.873Z,0
2017-02-11T01:53:54.959Z,0
2017-02-11T01:55:03.041Z,0
2017-02-11T01:56:11.135Z,0
2017-02-11T01:57:19.253Z,0
2017-02-11T01:58:27.321Z,0
2017-02-11T01:59:35.409Z,0
2017-02-11T02:00:43.502Z,0
2017-02-11T02:01:51.590Z,0
2017-02-11T02:02:59.676Z,0
2017-02-11T02:04:07.760Z,0
2017-02-11T02:05:15.849Z,0
2017-02-11T02:06:23.944Z,0
2017-02-11T02:07:32.026Z,0
2017-02-11T02:08:40.119Z,0
2017-02-11T02:09:48.207Z,0
2017-02-11T02:10:56.290Z,0
2017-02-11T02:12:04.380Z,0
2017-02-11T02:13:12.471Z,0
2017-02-11T02:14:20.559Z,0
2017-02-11T02:15:28.647Z,0
2017-02-11T02:16:36.734Z,0
2017-02-11T02:17:44.821Z,0
2017-02-11T02:18:52.905Z,0
2017-02-11T02:20:00.994Z,0
2017-02-11T02:21:09.084Z,0
2017-02-11T02:22:17.174Z,0
2017-02-11T02:23:25.258Z,0
2017-02-11T02:24:33.349Z,0
2017-02-11T02:25:41.441Z,0
2017-02-11T02:26:49.534Z,0
2017-02-11T02:27:57.625Z,0
2017-02-11T02:29:05.718Z,0
2017-02-11T02:30:13.808Z,0
2017-02-11T02:31:21.894Z,0
2017-02-11T02:32:29.981Z,0
2017-02-11T02:33:38.071Z,0
2017-02-11T02:34:46.159Z,0
2017-02-11T02:35:54.246Z,0
2017-02-11T02:37:02.341Z,0
2017-02-11T02:38:10.429Z,0
2017-02-11T02:39:18.516Z,0
2017-02-11T02:40:26.603Z,0
2017-02-11T02:41:34.695Z,0
2017-02-11T02:42:42.778Z,0
2017-02-11T02:43:50.872Z,0
2017-02-11T02:44:58.962Z,0
2017-02-11T02:46:07.050Z,0
2017-02-11T02:47:15.137Z,0
2017-02-11T02:48:23.231Z,0
2017-02-11T02:49:31.322Z,0
2017-02-11T02:50:39.418Z,0
2017-02-11T02:51:47.493Z,0
2017-02-11T02:52:55.592Z,0
2017-02-11T02:54:03.684Z,0
2017-02-11T02:55:11.765Z,0
2017-02-11T02:56:19.855Z,0
2017-02-11T02:57:27.941Z,0
2017-02-11T02:58:36.023Z,0
2017-02-11T02:59:44.114Z,0
2017-02-11T03:00:52.208Z,0
2017-02-11T03:02:00.295Z,0
2017-02-11T03:03:08.379Z,0
2017-02-11T03:04:16.471Z,0
2017-02-11T03:05:24.565Z,0
2017-02-11T03:06:32.653Z,0
2017-02-11T03:07:40.751Z,0
2017-02-11T03:08:48.852Z,0
2017-02-11T03:09:56.934Z,0
2017-02-11T03:11:05.021Z,0
2017-02-11T03:12:13.112Z,0
2017-02-11T03:13:21.196Z,0
2017-02-11T03:14:29.284Z,0
2017-02-11T03:15:37.374Z,0
2017-02-11T03:16:45.461Z,0
2017-02-11T03:17:53.546Z,0
2017-02-11T03:19:01.635Z,0
2017-02-11T03:20:09.724Z,0
2017-02-11T03:21:17.805Z,0
2017-02-11T03:22:25.890Z,0
2017-02-11T03:23:33.982Z,0
2017-02-11T03:24:42.071Z,0
2017-02-11T03:25:50.155Z,0
2017-02-11T03:26:58.246Z,0
2017-02-11T03:28:06.342Z,0
2017-02-11T03:29:14.428Z,0
2017-02-11T03:30:22.513Z,0
2017-02-11T03:31:30.606Z,0
2017-02-11T03:32:38.690Z,0
2017-02-11T03:33:46.777Z,0
2017-02-11T03:34:54.865Z,0
2017-02-11T03:36:02.964Z,0
2017-02-11T03:37:11.053Z,0
2017-02-11T03:38:19.136Z,0
2017-02-11T03:39:27.226Z,0
2017-02-11T03:40:35.315Z,0
2017-02-11T03:41:43.400Z,0
2017-02-11T03:42:51.483Z,0
2017-02-11T03:43:59.597Z,0
2017-02-11T03:45:07.657Z,0
2017-02-11T03:46:15.746Z,0
2017-02-11T03:47:23.839Z,0
2017-02-11T03:48:31.923Z,0
2017-02-11T03:49:40.013Z,0
2017-02-11T03:50:48.096Z,0
2017-02-11T03:51:56.184Z,0
2017-02-11T03:53:04.276Z,0
2017-02-11T03:54:12.363Z,0
2017-02-11T03:55:20.449Z,0
2017-02-11T03:56:28.537Z,0
2017-02-11T03:57:36.619Z,0
2017-02-11T03:58:44.702Z,0
2017-02-11T03:59:52.799Z,0
2017-02-11T04:01:00.891Z,0
2017-02-11T04:02:08.975Z,0
2017-02-11T04:03:17.070Z,0
2017-02-11T04:04:25.153Z,0
2017-02-11T04:05:33.237Z,0
2017-02-11T04:06:41.325Z,0
2017-02-11T04:07:49.410Z,0
2017-02-11T04:08:57.585Z,0
2017-02-11T04:10:05.598Z,0
2017-02-11T04:11:13.694Z,0
2017-02-11T04:12:21.782Z,0
2017-02-11T04:13:29.876Z,0
2017-02-11T04:14:37.962Z,0
2017-02-11T04:15:46.046Z,0
2017-02-11T04:16:54.140Z,0
2017-02-11T04:18:02.226Z,0
2017-02-11T04:19:10.308Z,0
2017-02-11T04:20:18.398Z,0
2017-02-11T04:21:26.477Z,0
2017-02-11T04:22:34.571Z,0
2017-02-11T04:23:42.659Z,0
2017-02-11T04:24:50.742Z,0
2017-02-11T04:25:58.839Z,0
2017-02-11T04:27:06.917Z,0
2017-02-11T04:28:15.002Z,0
2017-02-11T04:29:23.090Z,0
2017-02-11T04:30:31.178Z,0
2017-02-11T04:31:39.268Z,0
2017-02-11T04:32:47.351Z,0
2017-02-11T04:33:55.437Z,0
2017-02-11T04:35:03.527Z,0
2017-02-11T04:36:11.611Z,0
2017-02-11T04:37:19.694Z,0
2017-02-11T04:38:27.787Z,0
2017-02-11T04:39:35.871Z,0
2017-02-11T04:40:43.964Z,0
2017-02-11T04:41:52.041Z,0
2017-02-11T04:43:00.198Z,0
2017-02-11T04:44:08.219Z,0
2017-02-11T04:45:16.305Z,0
2017-02-11T04:46:24.394Z,0
2017-02-11T04:47:32.482Z,0
2017-02-11T04:48:40.567Z,0
2017-02-11T04:49:48.649Z,0
2017-02-11T04:50:56.746Z,0
2017-02-11T04:52:04.833Z,0
2017-02-11T04:53:12.920Z,0
2017-02-11T04:54:21.006Z,0
2017-02-11T04:55:29.093Z,0
2017-02-11T04:56:37.174Z,0
2017-02-11T04:57:45.262Z,0
2017-02-11T04:58:53.353Z,0
2017-02-11T05:00:02.136Z,0
2017-02-11T05:01:09.517Z,0
2017-02-11T05:02:17.613Z,0
2017-02-11T05:03:25.704Z,0
2017-02-11T05:04:33.786Z,0
2017-02-11T05:05:41.871Z,0
2017-02-11T05:06:49.958Z,0
2017-02-11T05:07:58.045Z,0
2017-02-11T05:09:06.132Z,0
2017-02-11T05:10:14.223Z,0
2017-02-11T05:11:22.320Z,0
2017-02-11T05:12:30.402Z,0
2017-02-11T05:13:38.492Z,0
2017-02-11T05:14:46.586Z,0
2017-02-11T05:15:54.665Z,0
2017-02-11T05:17:02.747Z,0
2017-02-11T05:18:10.837Z,0
2017-02-11T05:19:18.926Z,0
2017-02-11T05:20:27.007Z,0
2017-02-11T05:21:35.097Z,0
2017-02-11T05:22:43.188Z,0
2017-02-11T05:23:51.280Z,0
2017-02-11T05:24:59.373Z,0
2017-02-11T05:26:07.466Z,0
2017-02-11T05:27:15.552Z,0
2017-02-11T05:28:23.638Z,0
2017-02-11T05:29:31.726Z,0
2017-02-11T05:30:39.812Z,0
2017-02-11T05:31:47.893Z,0
2017-02-11T05:32:55.980Z,0
2017-02-11T05:34:04.071Z,0
2017-02-11T05:35:12.155Z,0
2017-02-11T05:36:20.235Z,0
2017-02-11T05:37:28.325Z,0
2017-02-11T05:38:36.417Z,0
2017-02-11T05:39:44.504Z,0
2017-02-11T05:40:52.589Z,0
2017-02-11T05:42:00.682Z,0
2017-02-11T05:43:08.762Z,0
2017-02-11T05:44:16.850Z,0
2017-02-11T05:45:24.945Z,0
2017-02-11T05:46:33.033Z,0
2017-02-11T05:47:41.116Z,0
2017-02-11T05:48:49.202Z,0
2017-02-11T05:49:57.294Z,0
2017-02-11T05:51:05.387Z,0
2017-02-11T05:52:13.472Z,0
2017-02-11T05:53:21.557Z,0
2017-02-11T05:54:29.645Z,0
2017-02-11T05:55:37.730Z,0
2017-02-11T05:56:45.816Z,0
2017-02-11T05:57:53.911Z,0
2017-02-11T05:59:01.997Z,0
2017-02-11T06:00:10.086Z,0
2017-02-11T06:01:18.180Z,0
2017-02-11T06:02:26.280Z,0
2017-02-11T06:03:34.356Z,0
2017-02-11T06:04:42.441Z,0
2017-02-11T06:05:50.538Z,0
2017-02-11T06:06:58.620Z,0
2017-02-11T06:08:06.775Z,0
2017-02-11T06:09:14.791Z,0
2017-02-11T06:10:22.880Z,0
2017-02-11T06:11:30.967Z,0
2017-02-11T06:12:39.055Z,0
2017-02-11T06:13:47.138Z,0
2017-02-11T06:14:55.225Z,0
2017-02-11T06:16:03.306Z,0
2017-02-11T06:17:11.396Z,0
2017-02-11T06:18:19.486Z,0
2017-02-11T06:19:27.567Z,0
2017-02-11T06:20:35.657Z,0
2017-02-11T06:21:43.742Z,0
2017-02-11T06:22:51.827Z,0
2017-02-11T06:23:59.914Z,0
2017-02-11T06:25:08.007Z,0
2017-02-11T06:26:16.092Z,0
2017-02-11T06:27:24.177Z,0
2017-02-11T06:28:32.267Z,0
2017-02-11T06:29:40.349Z,0
2017-02-11T06:30:48.437Z,0
2017-02-11T06:31:56.522Z,0
2017-02-11T06:33:04.609Z,0
2017-02-11T06:34:12.693Z,0
2017-02-11T06:35:20.781Z,0
2017-02-11T06:36:28.873Z,0
2017-02-11T06:37:36.960Z,0
2017-02-11T06:38:45.045Z,0
2017-02-11T06:39:53.127Z,0
2017-02-11T06:41:01.217Z,0
2017-02-11T06:42:09.308Z,0
2017-02-11T06:43:17.392Z,0
2017-02-11T06:44:25.486Z,0
2017-02-11T06:45:33.578Z,0
2017-02-11T06:46:41.666Z,0
2017-02-11T06:47:49.756Z,0
2017-02-11T06:48:57.845Z,0
2017-02-11T06:50:05.932Z,0
2017-02-11T06:51:14.022Z,0
2017-02-11T06:52:22.113Z,0
2017-02-11T06:53:30.197Z,4
2017-02-11T06:54:38.279Z,4
2017-02-11T06:55:46.368Z,0
2017-02-11T06:56:54.457Z,0
2017-02-11T06:58:02.551Z,0
2017-02-11T06:59:10.633Z,4
2017-02-11T07:00:18.726Z,0
2017-02-11T07:01:26.813Z,4
2017-02-11T07:02:34.902Z,4
2017-02-11T07:03:42.988Z,0
2017-02-11T07:04:51.077Z,0
2017-02-11T07:05:59.167Z,0
2017-02-11T07:07:07.335Z,0
2017-02-11T07:08:15.340Z,4
2017-02-11T07:09:23.448Z,4
2017-02-11T07:10:31.510Z,4
2017-02-11T07:11:39.629Z,4
2017-02-11T07:12:47.703Z,4
2017-02-11T07:13:55.791Z,4
2017-02-11T07:15:03.884Z,4
2017-02-11T07:16:11.964Z,4
2017-02-11T07:17:20.052Z,4
2017-02-11T07:18:28.135Z,0
2017-02-11T07:19:36.221Z,0
2017-02-11T07:20:44.315Z,0
2017-02-11T07:21:52.396Z,0
2017-02-11T07:23:00.485Z,4
2017-02-11T07:24:08.578Z,4
2017-02-11T07:25:16.667Z,4
2017-02-11T07:26:24.753Z,4
2017-02-11T07:27:32.840Z,0
2017-02-11T07:28:41.022Z,4
2017-02-11T07:29:49.019Z,4
2017-02-11T07:30:57.100Z,4
2017-02-11T07:32:05.191Z,4
2017-02-11T07:33:13.280Z,4
2017-02-11T07:34:21.365Z,4
2017-02-11T07:35:29.458Z,4
2017-02-11T07:36:37.545Z,4
2017-02-11T07:37:45.635Z,4
2017-02-11T07:38:53.711Z,4
2017-02-11T07:40:01.805Z,8
2017-02-11T07:41:09.893Z,4
2017-02-11T07:42:17.972Z,4
2017-02-11T07:43:26.067Z,4
2017-02-11T07:44:34.158Z,4
2017-02-11T07:45:42.240Z,4
2017-02-11T07:46:50.327Z,4
2017-02-11T07:47:58.416Z,8
2017-02-11T07:49:06.595Z,8
2017-02-11T07:50:14.608Z,8
2017-02-11T07:51:22.680Z,8
2017-02-11T07:52:30.767Z,4
2017-02-11T07:53:39.219Z,8
2017-02-11T07:54:46.939Z,4
2017-02-11T07:55:55.034Z,4
2017-02-11T07:57:03.115Z,4
2017-02-11T07:58:11.255Z,8
2017-02-11T07:59:19.296Z,8
2017-02-11T08:00:27.384Z,8
2017-02-11T08:01:35.470Z,12
2017-02-11T08:02:43.559Z,8
2017-02-11T08:03:51.647Z,12
2017-02-11T08:04:59.737Z,8
2017-02-11T08:06:07.817Z,8
2017-02-11T08:07:15.908Z,8
2017-02-11T08:08:24.003Z,12
2017-02-11T08:09:32.083Z,12
2017-02-11T08:10:40.434Z,12
2017-02-11T08:11:48.266Z,12
2017-02-11T08:12:56.352Z,12
2017-02-11T08:14:04.439Z,8
2017-02-11T08:15:12.529Z,12
2017-02-11T08:16:20.622Z,12
2017-02-11T08:17:28.711Z,12
2017-02-11T08:18:36.799Z,12
2017-02-11T08:19:44.896Z,8
2017-02-11T08:20:52.974Z,12
2017-02-11T08:22:01.062Z,12
2017-02-11T08:23:09.151Z,12
2017-02-11T08:24:17.237Z,12
2017-02-11T08:25:25.321Z,12
2017-02-11T08:26:33.415Z,12
2017-02-11T08:27:41.503Z,12
2017-02-11T08:28:49.593Z,12
2017-02-11T08:29:57.677Z,12
2017-02-11T08:31:05.765Z,12
2017-02-11T08:32:13.851Z,12
2017-02-11T08:33:21.935Z,16
2017-02-11T08:34:30.025Z,16
2017-02-11T08:35:38.111Z,16
2017-02-11T08:36:46.197Z,16
2017-02-11T08:37:54.281Z,16
2017-02-11T08:39:02.370Z,16
2017-02-11T08:40:10.460Z,16
2017-02-11T08:41:18.548Z,16
2017-02-11T08:42:26.633Z,16
2017-02-11T08:43:34.756Z,12
2017-02-11T08:44:42.800Z,16
2017-02-11T08:45:50.901Z,12
2017-02-11T08:46:58.986Z,16
2017-02-11T08:48:07.085Z,16
2017-02-11T08:49:15.174Z,16
2017-02-11T08:50:23.263Z,16
2017-02-11T08:51:31.352Z,20
2017-02-11T08:52:39.442Z,20
2017-02-11T08:53:47.529Z,16
2017-02-11T08:54:55.614Z,12
2017-02-11T08:56:03.700Z,16
2017-02-11T08:57:11.780Z,16
2017-02-11T08:58:19.870Z,16
2017-02-11T08:59:27.955Z,16
2017-02-11T09:00:36.043Z,20
2017-02-11T09:01:44.124Z,16
2017-02-11T09:02:52.214Z,20
2017-02-11T09:04:00.302Z,20
2017-02-11T09:05:08.384Z,20
2017-02-11T09:06:16.476Z,20
2017-02-11T09:07:24.564Z,20
2017-02-11T09:08:32.649Z,20
2017-02-11T09:09:40.732Z,16
2017-02-11T09:10:48.837Z,20
2017-02-11T09:11:56.916Z,20
2017-02-11T09:13:05.000Z,20
2017-02-11T09:14:13.089Z,20
2017-02-11T09:15:21.181Z,20
2017-02-11T09:16:29.271Z,20
2017-02-11T09:17:37.359Z,20
2017-02-11T09:18:45.460Z,20
2017-02-11T09:19:53.562Z,20
2017-02-11T09:21:01.628Z,20
2017-02-11T09:22:09.718Z,20
2017-02-11T09:23:17.811Z,20
2017-02-11T09:24:25.897Z,20
2017-02-11T09:25:33.995Z,20
2017-02-11T09:26:42.092Z,16
2017-02-11T09:27:50.183Z,16
2017-02-11T09:28:58.262Z,20
2017-02-11T09:30:06.361Z,20
2017-02-11T09:31:14.455Z,16
2017-02-11T09:32:22.542Z,20
2017-02-11T09:33:30.629Z,20
2017-02-11T09:34:38.718Z,20
2017-02-11T09:35:46.804Z,20
2017-02-11T09:36:54.888Z,20
2017-02-11T09:38:02.981Z,20
2017-02-11T09:39:11.071Z,20
2017-02-11T09:40:19.167Z,24
2017-02-11T09:41:27.254Z,20
2017-02-11T09:42:35.333Z,20
2017-02-11T09:43:43.424Z,24
2017-02-11T09:44:51.508Z,24
2017-02-11T09:45:59.598Z,28
2017-02-11T09:47:07.685Z,24
2017-02-11T09:48:15.792Z,24
2017-02-11T09:49:23.861Z,28
2017-02-11T09:50:31.945Z,28
2017-02-11T09:51:40.043Z,24
2017-02-11T09:52:48.118Z,24
2017-02-11T09:53:56.207Z,28
2017-02-11T09:55:04.293Z,24
2017-02-11T09:56:12.421Z,28
2017-02-11T09:57:20.466Z,24
2017-02-11T09:58:28.559Z,28
2017-02-11T09:59:55.045Z,28
2017-02-11T10:00:44.726Z,28
2017-02-11T10:01:52.817Z,28
2017-02-11T10:03:00.904Z,28
2017-02-11T10:04:08.989Z,32
2017-02-11T10:05:17.075Z,28
2017-02-11T10:06:25.162Z,28
2017-02-11T10:07:33.245Z,28
2017-02-11T10:08:41.330Z,28
2017-02-11T10:09:49.424Z,28
2017-02-11T10:10:57.509Z,28
2017-02-11T10:12:05.592Z,28
2017-02-11T10:13:13.680Z,28
2017-02-11T10:14:21.770Z,28
2017-02-11T10:15:29.848Z,32
2017-02-11T10:16:37.941Z,32
2017-02-11T10:17:46.032Z,32
2017-02-11T10:18:54.118Z,32
2017-02-11T10:20:02.200Z,36
2017-02-11T10:21:10.294Z,36
2017-02-11T10:22:18.381Z,36
2017-02-11T10:23:26.461Z,32
2017-02-11T10:24:34.548Z,36
2017-02-11T10:25:42.637Z,32
2017-02-11T10:26:50.726Z,32
2017-02-11T10:27:58.812Z,32
2017-02-11T10:29:06.902Z,36
2017-02-11T10:30:14.991Z,32
2017-02-11T10:31:23.127Z,36
2017-02-11T10:32:31.155Z,36
2017-02-11T10:33:39.246Z,36
2017-02-11T10:34:47.338Z,32
2017-02-11T10:35:55.422Z,32
2017-02-11T10:37:03.512Z,36
2017-02-11T10:38:11.603Z,36
2017-02-11T10:39:19.688Z,32
2017-02-11T10:40:27.771Z,32
2017-02-11T10:41:35.864Z,32
2017-02-11T10:42:43.943Z,32
2017-02-11T10:43:52.028Z,32
2017-02-11T10:45:00.129Z,32
2017-02-11T10:46:08.213Z,32
2017-02-11T10:47:16.290Z,32
2017-02-11T10:48:24.460Z,28
2017-02-11T10:49:32.471Z,32
2017-02-11T10:50:40.555Z,28
2017-02-11T10:51:48.638Z,32
2017-02-11T10:52:56.729Z,36
2017-02-11T10:54:04.824Z,32
2017-02-11T10:55:12.907Z,36
2017-02-11T10:56:20.998Z,36
2017-02-11T10:57:29.087Z,36
2017-02-11T10:58:37.168Z,36
2017-02-11T10:59:45.253Z,36
2017-02-11T11:00:53.342Z,40
2017-02-11T11:02:01.429Z,40
2017-02-11T11:03:09.524Z,40
2017-02-11T11:04:17.613Z,40
2017-02-11T11:05:25.702Z,40
2017-02-11T11:06:33.788Z,40
2017-02-11T11:07:41.870Z,40
2017-02-11T11:08:49.960Z,40
2017-02-11T11:09:58.440Z,40
2017-02-11T11:11:06.132Z,40
2017-02-11T11:12:14.228Z,40
2017-02-11T11:13:22.312Z,40
2017-02-11T11:14:30.397Z,40
2017-02-11T11:15:38.483Z,36
2017-02-11T11:16:46.570Z,36
2017-02-11T11:17:54.656Z,40
2017-02-11T11:19:02.738Z,40
2017-02-11T11:20:10.829Z,36
2017-02-11T11:21:18.920Z,36
2017-02-11T11:22:27.005Z,40
2017-02-11T11:23:35.094Z,36
2017-02-11T11:24:43.179Z,36
2017-02-11T11:25:51.284Z,40
2017-02-11T11:26:59.351Z,40
2017-02-11T11:28:07.444Z,40
2017-02-11T11:29:15.533Z,40
2017-02-11T11:30:23.619Z,36
2017-02-11T11:31:31.699Z,40
2017-02-11T11:32:39.793Z,36
2017-02-11T11:33:47.881Z,40
2017-02-11T11:34:55.968Z,40
2017-02-11T11:36:04.059Z,40
2017-02-11T11:37:12.145Z,40
2017-02-11T11:38:20.230Z,36
2017-02-11T11:39:28.313Z,36
2017-02-11T11:40:36.408Z,36
2017-02-11T11:41:44.494Z,32
2017-02-11T11:42:52.579Z,36
2017-02-11T11:44:00.667Z,32
2017-02-11T11:45:08.749Z,32
2017-02-11T11:46:16.839Z,32
2017-02-11T11:47:24.921Z,32
2017-02-11T11:48:33.017Z,36
2017-02-11T11:49:41.108Z,36
2017-02-11T11:50:49.190Z,32
2017-02-11T11:51:57.288Z,32
2017-02-11T11:53:05.378Z,32
2017-02-11T11:54:13.467Z,36
2017-02-11T11:55:21.552Z,32
2017-02-11T11:56:29.636Z,32
2017-02-11T11:57:37.718Z,32
2017-02-11T11:58:45.804Z,36
2017-02-11T11:59:53.898Z,32
2017-02-11T12:01:02.000Z,36
2017-02-11T12:02:10.091Z,36
2017-02-11T12:03:18.179Z,36
2017-02-11T12:04:26.263Z,36
2017-02-11T12:05:34.350Z,36
2017-02-11T12:06:42.431Z,36
2017-02-11T12:07:50.521Z,36
2017-02-11T12:08:58.608Z,36
2017-02-11T12:10:06.695Z,36
2017-02-11T12:11:14.786Z,36
2017-02-11T12:12:22.873Z,32
2017-02-11T12:13:30.961Z,32
2017-02-11T12:14:39.044Z,28
2017-02-11T12:15:47.139Z,28
2017-02-11T12:16:55.227Z,28
2017-02-11T12:18:03.305Z,24
2017-02-11T12:19:11.401Z,28
2017-02-11T12:20:19.492Z,24
2017-02-11T12:21:27.572Z,28
2017-02-11T12:22:35.661Z,28
2017-02-11T12:23:43.760Z,28
2017-02-11T12:24:51.839Z,28
2017-02-11T12:25:59.931Z,32
2017-02-11T12:27:08.020Z,32
2017-02-11T12:28:16.103Z,36
2017-02-11T12:29:24.193Z,32
2017-02-11T12:30:32.279Z,36
2017-02-11T12:31:40.367Z,36
2017-02-11T12:32:48.462Z,36
2017-02-11T12:33:56.547Z,32
2017-02-11T12:35:04.637Z,36
2017-02-11T12:36:12.720Z,32
2017-02-11T12:37:20.805Z,36
2017-02-11T12:38:28.891Z,36
2017-02-11T12:39:36.979Z,40
2017-02-11T12:40:45.069Z,40
2017-02-11T12:41:53.147Z,36
2017-02-11T12:43:01.237Z,36
2017-02-11T12:44:09.323Z,36
2017-02-11T12:45:17.410Z,36
2017-02-11T12:46:25.494Z,36
2017-02-11T12:47:33.586Z,36
2017-02-11T12:48:41.675Z,40
2017-02-11T12:49:49.759Z,40
2017-02-11T12:50:57.852Z,40
2017-02-11T12:52:05.945Z,40
2017-02-11T12:53:14.032Z,44
2017-02-11T12:54:22.112Z,44
2017-02-11T12:55:30.204Z,40
2017-02-11T12:56:38.287Z,40
2017-02-11T12:57:46.378Z,40
2017-02-11T12:58:54.464Z,36
2017-02-11T13:00:02.550Z,36
2017-02-11T13:01:10.636Z,40
2017-02-11T13:02:18.728Z,40
2017-02-11T13:03:26.811Z,40
2017-02-11T13:04:34.899Z,40
2017-02-11T13:05:42.981Z,40
2017-02-11T13:06:51.072Z,40
2017-02-11T13:07:59.158Z,44
2017-02-11T13:09:07.245Z,48
2017-02-11T13:10:15.335Z,48
2017-02-11T13:11:23.422Z,48
2017-02-11T13:12:31.511Z,48
2017-02-11T13:13:39.601Z,52
2017-02-11T13:14:47.691Z,48
2017-02-11T13:15:55.782Z,44
2017-02-11T13:17:03.949Z,44
2017-02-11T13:18:11.963Z,52
2017-02-11T13:19:20.051Z,52
2017-02-11T13:20:28.131Z,52
2017-02-11T13:21:36.234Z,44
2017-02-11T13:22:44.326Z,40
2017-02-11T13:23:52.410Z,36
2017-02-11T13:25:00.525Z,36
2017-02-11T13:26:08.583Z,36
2017-02-11T13:27:16.671Z,40
2017-02-11T13:28:24.759Z,40
2017-02-11T13:29:32.841Z,44
2017-02-11T13:30:40.932Z,44
2017-02-11T13:31:49.020Z,44
2017-02-11T13:32:57.101Z,48
2017-02-11T13:34:05.272Z,48
2017-02-11T13:35:13.277Z,48
2017-02-11T13:36:21.365Z,48
2017-02-11T13:37:29.464Z,48
2017-02-11T13:38:37.584Z,48
2017-02-11T13:39:45.645Z,48
2017-02-11T13:40:53.725Z,48
2017-02-11T13:42:01.814Z,44
2017-02-11T13:43:09.905Z,44
2017-02-11T13:44:17.989Z,40
2017-02-11T13:45:26.075Z,40
2017-02-11T13:46:34.169Z,36
2017-02-11T13:47:42.259Z,36
2017-02-11T13:48:50.358Z,36
2017-02-11T13:49:58.430Z,36
2017-02-11T13:51:06.609Z,36
2017-02-11T13:52:14.602Z,36
2017-02-11T13:53:22.685Z,40
2017-02-11T13:54:30.777Z,40
2017-02-11T13:55:38.864Z,40
2017-02-11T13:56:46.949Z,40
2017-02-11T13:57:55.041Z,44
2017-02-11T13:59:03.124Z,44
2017-02-11T14:00:11.206Z,40
2017-02-11T14:01:19.292Z,40
2017-02-11T14:02:27.383Z,36
2017-02-11T14:03:35.473Z,36
2017-02-11T14:04:43.566Z,36
2017-02-11T14:05:51.663Z,36
2017-02-11T14:06:59.752Z,32
2017-02-11T14:08:07.838Z,32
2017-02-11T14:09:15.931Z,32
2017-02-11T14:10:24.021Z,32
2017-02-11T14:11:32.107Z,32
2017-02-11T14:12:40.197Z,36
2017-02-11T14:13:48.291Z,36
2017-02-11T14:14:56.391Z,32
2017-02-11T14:16:04.472Z,28
2017-02-11T14:17:12.559Z,28
2017-02-11T14:18:20.653Z,24
2017-02-11T14:19:28.735Z,20
2017-02-11T14:20:36.819Z,20
2017-02-11T14:21:44.908Z,20
2017-02-11T14:22:52.995Z,24
2017-02-11T14:24:01.081Z,24
2017-02-11T14:25:09.170Z,24
2017-02-11T14:26:17.258Z,24
2017-02-11T14:27:25.345Z,20
2017-02-11T14:28:33.427Z,24
2017-02-11T14:29:41.517Z,24
2017-02-11T14:30:49.610Z,28
2017-02-11T14:31:57.693Z,28
2017-02-11T14:33:05.781Z,32
2017-02-11T14:34:13.872Z,36
2017-02-11T14:35:21.954Z,40
2017-02-11T14:36:30.042Z,44
2017-02-11T14:37:38.132Z,40
2017-02-11T14:38:46.219Z,48
2017-02-11T14:39:54.308Z,32
2017-02-11T14:41:02.393Z,32
2017-02-11T14:42:10.481Z,36
2017-02-11T14:43:18.574Z,36
2017-02-11T14:44:26.663Z,48
2017-02-11T14:45:34.753Z,52
2017-02-11T14:46:42.831Z,56
2017-02-11T14:47:50.919Z,56
2017-02-11T14:48:59.015Z,48
2017-02-11T14:50:07.103Z,44
2017-02-11T14:51:15.196Z,40
2017-02-11T14:52:23.276Z,36
2017-02-11T14:53:31.370Z,28
2017-02-11T14:54:39.461Z,44
2017-02-11T14:55:47.540Z,28
2017-02-11T14:56:55.629Z,28
2017-02-11T14:58:03.718Z,32
2017-02-11T14:59:11.802Z,32
2017-02-11T15:00:19.886Z,32
2017-02-11T15:01:27.977Z,32
2017-02-11T15:02:36.074Z,40
2017-02-11T15:03:44.163Z,36
2017-02-11T15:04:52.256Z,36
2017-02-11T15:06:00.345Z,28
2017-02-11T15:07:08.433Z,28
2017-02-11T15:08:16.607Z,32
2017-02-11T15:09:24.607Z,32
2017-02-11T15:10:32.692Z,32
2017-02-11T15:11:40.786Z,28
2017-02-11T15:12:48.877Z,32
2017-02-11T15:13:56.968Z,32
2017-02-11T15:15:05.059Z,32
2017-02-11T15:16:13.143Z,24
2017-02-11T15:17:21.240Z,28
2017-02-11T15:18:29.328Z,24
2017-02-11T15:19:37.419Z,24
2017-02-11T15:20:45.510Z,20
2017-02-11T15:21:53.599Z,20
2017-02-11T15:23:01.683Z,20
2017-02-11T15:24:10.184Z,20
2017-02-11T15:25:17.861Z,20
2017-02-11T15:26:25.952Z,20
2017-02-11T15:27:34.034Z,16
2017-02-11T15:28:42.130Z,16
2017-02-11T15:29:50.221Z,16
2017-02-11T15:30:58.303Z,16
2017-02-11T15:32:06.399Z,16
2017-02-11T15:33:14.484Z,16
2017-02-11T15:34:22.571Z,12
2017-02-11T15:35:30.662Z,12
2017-02-11T15:36:38.749Z,12
2017-02-11T15:37:46.849Z,12
2017-02-11T15:38:54.930Z,12
2017-02-11T15:40:03.018Z,12
2017-02-11T15:41:11.116Z,12
2017-02-11T15:42:19.206Z,8
2017-02-11T15:43:27.290Z,12
2017-02-11T15:44:35.384Z,8
2017-02-11T15:45:43.476Z,12
2017-02-11T15:46:51.560Z,8
2017-02-11T15:47:59.652Z,8
2017-02-11T15:49:07.751Z,8
2017-02-11T15:50:15.839Z,12
2017-02-11T15:51:23.922Z,8
2017-02-11T15:52:32.017Z,8
2017-02-11T15:53:40.105Z,4
2017-02-11T15:54:48.198Z,4
2017-02-11T15:55:56.292Z,8
2017-02-11T15:57:04.380Z,4
2017-02-11T15:58:12.459Z,4
2017-02-11T15:59:20.550Z,4
2017-02-11T16:00:28.645Z,4
2017-02-11T16:01:36.733Z,4
2017-02-11T16:02:44.882Z,4
2017-02-11T16:03:52.915Z,4
2017-02-11T16:05:01.007Z,4
2017-02-11T16:06:09.092Z,4
2017-02-11T16:07:17.179Z,4
2017-02-11T16:08:25.281Z,0
2017-02-11T16:09:33.651Z,0
2017-02-11T16:10:41.773Z,4
2017-02-11T16:11:49.538Z,4
2017-02-11T16:12:57.624Z,4
2017-02-11T16:14:05.710Z,4
2017-02-11T16:15:13.802Z,4
2017-02-11T16:16:21.891Z,4
2017-02-11T16:17:29.983Z,4
2017-02-11T16:18:38.072Z,0
2017-02-11T16:19:46.166Z,0
2017-02-11T16:20:54.249Z,0
2017-02-11T16:22:02.334Z,0
2017-02-11T16:23:10.422Z,0
2017-02-11T16:24:18.517Z,0
2017-02-11T16:25:26.608Z,4
2017-02-11T16:26:34.685Z,4
2017-02-11T16:27:42.783Z,4
2017-02-11T16:28:50.865Z,4
2017-02-11T16:29:58.952Z,0